Time;durP1;ratioP1;P1;durP2;ratioP2;P2;SDS_P1;SDS_P2;PMS_P1;PMS_P2;Temp;Humidity;BMP_temperature;BMP_pressure;BME280_temperature;BME280_humidity;BME280_pressure;Samples;Min_cycle;Max_cycle;Signal;HPM_P1;HPM_P2
2023/05/20 00:00:47;;;;;;;7.63;5.25;;;;;;;;;;5034824;28;20045;-60
2023/05/20 00:03:15;;;;;;;6.60;4.60;;;;;;;;;;5030137;28;20037;-60
2023/05/20 00:05:41;;;;;;;6.70;4.53;;;;;;;;;;5017724;28;20029;-60
2023/05/20 00:08:08;;;;;;;5.88;4.90;;;;;;;;;;5034832;28;20034;-59
2023/05/20 00:10:35;;;;;;;7.78;5.22;;;;;;;;;;5032349;28;20037;-59
2023/05/20 00:13:01;;;;;;;6.43;4.85;;;;;;;;;;5027592;28;20383;-59
2023/05/20 00:15:28;;;;;;;7.60;5.07;;;;;;;;;;5034853;28;20033;-59
2023/05/20 00:17:55;;;;;;;10.57;5.88;;;;;;;;;;5036351;28;20371;-59
2023/05/20 00:20:21;;;;;;;8.07;5.80;;;;;;;;;;5021016;28;20522;-59
2023/05/20 00:22:47;;;;;;;6.82;5.57;;;;;;;;;;5031080;28;20037;-59
2023/05/20 00:25:13;;;;;;;7.13;4.82;;;;;;;;;;5033070;28;20048;-59
2023/05/20 00:27:40;;;;;;;7.18;4.80;;;;;;;;;;5020721;28;20037;-64
2023/05/20 00:30:07;;;;;;;8.55;5.30;;;;;;;;;;5040317;28;20032;-59
2023/05/20 00:32:34;;;;;;;8.85;5.30;;;;;;;;;;5034973;28;20045;-59
2023/05/20 00:35:01;;;;;;;8.85;5.22;;;;;;;;;;5038534;28;20431;-60
2023/05/20 00:37:28;;;;;;;8.05;5.20;;;;;;;;;;5040438;28;20262;-60
2023/05/20 00:39:54;;;;;;;8.00;5.07;;;;;;;;;;5016313;28;20041;-59
2023/05/20 00:42:24;;;;;;;6.13;5.05;;;;;;;;;;5038559;28;20040;-60
2023/05/20 00:44:51;;;;;;;7.97;5.50;;;;;;;;;;5014394;28;20538;-59
2023/05/20 00:47:19;;;;;;;8.48;4.70;;;;;;;;;;5037924;28;20530;-59
2023/05/20 00:49:48;;;;;;;8.60;5.68;;;;;;;;;;5038424;28;20114;-60
2023/05/20 00:52:17;;;;;;;7.15;5.35;;;;;;;;;;5015548;28;20306;-59
2023/05/20 00:54:44;;;;;;;9.85;6.45;;;;;;;;;;5014897;28;20380;-59
2023/05/20 00:57:11;;;;;;;8.00;6.07;;;;;;;;;;5024427;28;20045;-59
2023/05/20 00:59:37;;;;;;;9.15;6.00;;;;;;;;;;5035081;28;20399;-59
2023/05/20 01:02:04;;;;;;;10.02;5.53;;;;;;;;;;5023155;28;20064;-59
2023/05/20 01:04:31;;;;;;;9.32;5.50;;;;;;;;;;5031583;28;20379;-60
2023/05/20 01:07:01;;;;;;;8.27;5.97;;;;;;;;;;5036468;28;20049;-60
2023/05/20 01:09:30;;;;;;;7.82;5.53;;;;;;;;;;5027630;28;20044;-60
2023/05/20 01:12:11;;;;;;;7.93;5.53;;;;;;;;;;5023630;28;20053;-60
2023/05/20 01:14:45;;;;;;;5.85;4.75;;;;;;;;;;5016432;28;20403;-60
2023/05/20 01:17:16;;;;;;;9.43;5.45;;;;;;;;;;5037418;28;20056;-60
2023/05/20 01:19:44;;;;;;;6.47;4.75;;;;;;;;;;5025244;28;20041;-60
2023/05/20 01:22:12;;;;;;;6.57;5.13;;;;;;;;;;5021939;28;20047;-60
2023/05/20 01:24:43;;;;;;;9.38;5.75;;;;;;;;;;5013980;28;20049;-60
2023/05/20 01:27:12;;;;;;;9.43;5.97;;;;;;;;;;5042169;28;20045;-60
2023/05/20 01:29:42;;;;;;;8.73;5.10;;;;;;;;;;5032637;28;20049;-60
2023/05/20 01:32:14;;;;;;;7.35;4.93;;;;;;;;;;5035100;28;20045;-60
2023/05/20 01:34:42;;;;;;;7.20;5.10;;;;;;;;;;5038571;28;20048;-60
2023/05/20 01:37:09;;;;;;;7.70;5.40;;;;;;;;;;5026652;28;20040;-60
2023/05/20 01:39:40;;;;;;;8.55;4.93;;;;;;;;;;5032582;28;20049;-60
2023/05/20 01:42:08;;;;;;;6.22;4.95;;;;;;;;;;5035494;28;20041;-60
2023/05/20 01:44:35;;;;;;;5.18;4.43;;;;;;;;;;5038613;28;20248;-60
2023/05/20 01:47:02;;;;;;;6.78;4.80;;;;;;;;;;5041200;28;20045;-60
2023/05/20 01:49:28;;;;;;;6.32;4.90;;;;;;;;;;5034239;28;20052;-60
2023/05/20 01:51:55;;;;;;;8.10;5.03;;;;;;;;;;5023354;28;20040;-60
2023/05/20 01:54:21;;;;;;;12.75;5.75;;;;;;;;;;5021555;28;20029;-60
2023/05/20 01:56:48;;;;;;;6.05;4.97;;;;;;;;;;5033541;28;20048;-60
2023/05/20 01:59:14;;;;;;;8.45;5.07;;;;;;;;;;5005630;28;20033;-59
2023/05/20 02:01:41;;;;;;;7.97;5.43;;;;;;;;;;5022106;28;20029;-60
2023/05/20 02:04:07;;;;;;;7.85;6.07;;;;;;;;;;5035015;28;20036;-59
2023/05/20 02:06:33;;;;;;;9.55;5.30;;;;;;;;;;5010497;28;20061;-59
2023/05/20 02:08:59;;;;;;;8.90;5.95;;;;;;;;;;5018866;28;20546;-60
2023/05/20 02:11:25;;;;;;;9.27;5.57;;;;;;;;;;5019118;28;20045;-60
2023/05/20 02:13:54;;;;;;;9.65;5.93;;;;;;;;;;5025990;28;20056;-60
2023/05/20 02:16:21;;;;;;;9.40;5.85;;;;;;;;;;5020472;28;20506;-60
2023/05/20 02:18:47;;;;;;;9.70;5.57;;;;;;;;;;5035192;28;20045;-59
2023/05/20 02:21:16;;;;;;;9.15;5.88;;;;;;;;;;5034887;28;20041;-60
2023/05/20 02:23:42;;;;;;;12.27;6.30;;;;;;;;;;4995446;28;20029;-60
2023/05/20 02:26:08;;;;;;;10.35;6.15;;;;;;;;;;5019821;28;20037;-58
2023/05/20 02:28:39;;;;;;;9.77;6.53;;;;;;;;;;5033661;28;20521;-58
2023/05/20 02:31:05;;;;;;;8.77;6.07;;;;;;;;;;5000830;28;20040;-58
2023/05/20 02:33:31;;;;;;;9.68;6.18;;;;;;;;;;5031848;28;20041;-58
2023/05/20 02:35:58;;;;;;;10.40;6.65;;;;;;;;;;5032991;28;20057;-59
2023/05/20 02:38:24;;;;;;;11.45;6.63;;;;;;;;;;5028787;28;20021;-60
2023/05/20 02:40:50;;;;;;;8.70;6.15;;;;;;;;;;5019409;28;20042;-61
2023/05/20 02:43:16;;;;;;;8.90;5.80;;;;;;;;;;5037903;28;20044;-61
2023/05/20 02:45:42;;;;;;;9.10;6.78;;;;;;;;;;5026987;28;20057;-60
2023/05/20 02:48:09;;;;;;;12.10;6.47;;;;;;;;;;5033907;28;20046;-60
2023/05/20 02:50:38;;;;;;;10.15;6.43;;;;;;;;;;5019333;28;20383;-60
2023/05/20 02:53:04;;;;;;;11.10;6.82;;;;;;;;;;5033029;28;20037;-60
2023/05/20 02:55:34;;;;;;;11.30;7.00;;;;;;;;;;5003790;28;20068;-59
2023/05/20 02:58:00;;;;;;;9.70;6.88;;;;;;;;;;5039277;28;20057;-60
2023/05/20 03:00:29;;;;;;;8.20;6.63;;;;;;;;;;5033075;28;20060;-61
2023/05/20 03:02:56;;;;;;;12.88;7.32;;;;;;;;;;5031827;28;20060;-60
2023/05/20 03:05:23;;;;;;;9.90;6.63;;;;;;;;;;5038126;28;20047;-59
2023/05/20 03:07:49;;;;;;;8.48;6.38;;;;;;;;;;5032222;28;20057;-60
2023/05/20 03:10:15;;;;;;;8.77;6.63;;;;;;;;;;5030179;28;20052;-60
2023/05/20 03:12:41;;;;;;;10.38;6.65;;;;;;;;;;5041166;28;20044;-60
2023/05/20 03:15:09;;;;;;;15.27;7.43;;;;;;;;;;5031033;28;20041;-59
2023/05/20 03:17:36;;;;;;;10.80;7.70;;;;;;;;;;5016192;28;20028;-60
2023/05/20 03:20:03;;;;;;;11.75;7.10;;;;;;;;;;5038103;28;20052;-60
2023/05/20 03:22:29;;;;;;;11.40;7.45;;;;;;;;;;5040438;28;20392;-60
2023/05/20 03:24:56;;;;;;;18.90;10.63;;;;;;;;;;5037487;28;20418;-60
2023/05/20 03:27:25;;;;;;;12.40;6.70;;;;;;;;;;5037262;28;20041;-60
2023/05/20 03:29:53;;;;;;;9.30;6.55;;;;;;;;;;5030332;28;20025;-60
2023/05/20 03:32:20;;;;;;;9.98;6.70;;;;;;;;;;5034722;28;20049;-60
2023/05/20 03:34:46;;;;;;;14.25;8.30;;;;;;;;;;5010465;28;20029;-60
2023/05/20 03:37:13;;;;;;;8.45;6.53;;;;;;;;;;5032606;28;20483;-60
2023/05/20 03:39:39;;;;;;;16.45;7.30;;;;;;;;;;5006263;28;20120;-60
2023/05/20 03:42:05;;;;;;;10.00;7.55;;;;;;;;;;5037628;28;20041;-60
2023/05/20 03:44:32;;;;;;;13.30;7.10;;;;;;;;;;5034899;28;20037;-60
2023/05/20 03:46:58;;;;;;;10.48;7.15;;;;;;;;;;5037977;28;20053;-58
2023/05/20 03:49:24;;;;;;;9.27;6.65;;;;;;;;;;5029034;28;20041;-60
2023/05/20 03:51:50;;;;;;;10.90;7.55;;;;;;;;;;5031004;28;20049;-60
2023/05/20 03:54:17;;;;;;;13.45;7.65;;;;;;;;;;4994473;28;20091;-60
2023/05/20 03:56:48;;;;;;;11.85;7.88;;;;;;;;;;5030737;28;20033;-60
2023/05/20 03:59:14;;;;;;;10.88;7.15;;;;;;;;;;5028319;28;20483;-60
2023/05/20 04:01:40;;;;;;;12.02;7.80;;;;;;;;;;5039038;28;20049;-60
2023/05/20 04:04:06;;;;;;;12.07;7.85;;;;;;;;;;5023337;28;20040;-60
2023/05/20 04:06:33;;;;;;;11.20;7.43;;;;;;;;;;5038733;28;20033;-60
2023/05/20 04:09:00;;;;;;;11.80;7.35;;;;;;;;;;5002620;28;20509;-60
2023/05/20 04:11:26;;;;;;;10.32;7.18;;;;;;;;;;5031961;28;20100;-60
2023/05/20 04:13:53;;;;;;;11.95;7.63;;;;;;;;;;5033323;28;20808;-60
2023/05/20 04:16:19;;;;;;;11.85;7.88;;;;;;;;;;5014655;28;20032;-60
2023/05/20 04:18:47;;;;;;;13.35;7.75;;;;;;;;;;5036291;28;20511;-60
2023/05/20 04:21:13;;;;;;;14.02;7.78;;;;;;;;;;5023430;28;20045;-60
2023/05/20 04:23:40;;;;;;;12.68;8.25;;;;;;;;;;5037044;28;20029;-60
2023/05/20 04:26:06;;;;;;;13.75;8.95;;;;;;;;;;5016612;28;20044;-60
2023/05/20 04:28:33;;;;;;;16.90;10.57;;;;;;;;;;5033933;28;20041;-59
2023/05/20 04:31:03;;;;;;;16.17;9.35;;;;;;;;;;5037705;28;20052;-60
2023/05/20 04:33:31;;;;;;;13.15;8.50;;;;;;;;;;5042344;28;20056;-60
2023/05/20 04:35:58;;;;;;;12.18;8.60;;;;;;;;;;5022671;28;20071;-60
2023/05/20 04:38:28;;;;;;;14.48;8.93;;;;;;;;;;5034045;28;20045;-60
2023/05/20 04:41:01;;;;;;;12.63;9.05;;;;;;;;;;5038194;28;20041;-60
2023/05/20 04:43:28;;;;;;;13.80;8.85;;;;;;;;;;5003776;28;20040;-60
2023/05/20 04:46:00;;;;;;;16.50;9.32;;;;;;;;;;5024880;28;20041;-60
2023/05/20 04:48:26;;;;;;;13.18;9.27;;;;;;;;;;5037341;28;20033;-60
2023/05/20 04:50:53;;;;;;;15.30;9.40;;;;;;;;;;5027337;28;20063;-60
2023/05/20 04:53:22;;;;;;;12.65;9.10;;;;;;;;;;5015512;28;20029;-60
2023/05/20 04:55:52;;;;;;;12.18;9.00;;;;;;;;;;5012694;28;20037;-60
2023/05/20 04:58:23;;;;;;;11.38;9.45;;;;;;;;;;5022282;28;20030;-60
2023/05/20 05:00:50;;;;;;;13.20;9.48;;;;;;;;;;5040976;28;20048;-59
2023/05/20 05:03:16;;;;;;;13.63;9.95;;;;;;;;;;5043034;28;20056;-59
2023/05/20 05:05:43;;;;;;;15.68;9.13;;;;;;;;;;5021495;28;20423;-59
2023/05/20 05:08:12;;;;;;;14.60;9.63;;;;;;;;;;5035591;28;20052;-58
2023/05/20 05:10:44;;;;;;;14.07;9.50;;;;;;;;;;4991594;28;20029;-60
2023/05/20 05:13:10;;;;;;;14.75;10.00;;;;;;;;;;5031595;28;20033;-60
2023/05/20 05:15:37;;;;;;;16.65;10.07;;;;;;;;;;5017731;28;20518;-60
2023/05/20 05:18:03;;;;;;;18.45;11.30;;;;;;;;;;5036262;28;20053;-59
2023/05/20 05:20:30;;;;;;;15.32;10.10;;;;;;;;;;5037638;28;20406;-60
2023/05/20 05:22:56;;;;;;;16.77;10.75;;;;;;;;;;5005222;28;20052;-60
2023/05/20 05:25:22;;;;;;;17.80;10.82;;;;;;;;;;5034076;28;20036;-59
2023/05/20 05:27:49;;;;;;;15.88;10.68;;;;;;;;;;5034580;28;20032;-60
2023/05/20 05:30:16;;;;;;;19.10;11.10;;;;;;;;;;5029744;28;20050;-59
2023/05/20 05:32:43;;;;;;;16.95;10.65;;;;;;;;;;5026870;28;20033;-60
2023/05/20 05:35:10;;;;;;;16.45;10.88;;;;;;;;;;5035960;28;20340;-60
2023/05/20 05:37:36;;;;;;;18.30;10.55;;;;;;;;;;5035956;28;20073;-60
2023/05/20 05:40:03;;;;;;;18.92;10.73;;;;;;;;;;5021687;28;20049;-60
2023/05/20 05:42:30;;;;;;;15.25;10.35;;;;;;;;;;5032730;28;20049;-60
2023/05/20 05:44:56;;;;;;;14.65;10.50;;;;;;;;;;5038411;28;20045;-61
2023/05/20 05:47:23;;;;;;;13.32;10.05;;;;;;;;;;5022283;28;20033;-59
2023/05/20 05:49:50;;;;;;;16.40;11.20;;;;;;;;;;5018754;28;20053;-58
2023/05/20 05:52:16;;;;;;;20.50;13.27;;;;;;;;;;5014927;28;20041;-58
2023/05/20 05:54:43;;;;;;;19.85;13.02;;;;;;;;;;5005509;28;20037;-59
2023/05/20 05:57:10;;;;;;;17.48;11.43;;;;;;;;;;5037766;28;20058;-60
2023/05/20 05:59:37;;;;;;;15.82;10.70;;;;;;;;;;5024607;28;20458;-59
2023/05/20 06:02:04;;;;;;;12.68;10.20;;;;;;;;;;5034050;28;20096;-58
2023/05/20 06:04:30;;;;;;;15.38;10.30;;;;;;;;;;5008725;28;20085;-58
2023/05/20 06:06:57;;;;;;;14.95;10.80;;;;;;;;;;5030542;28;20060;-58
2023/05/20 06:09:23;;;;;;;15.10;10.20;;;;;;;;;;5035485;28;20383;-59
2023/05/20 06:11:51;;;;;;;14.65;10.32;;;;;;;;;;5029722;28;20064;-59
2023/05/20 06:14:17;;;;;;;14.15;10.77;;;;;;;;;;5028611;28;20037;-59
2023/05/20 06:16:44;;;;;;;14.00;10.05;;;;;;;;;;4984299;28;20037;-59
2023/05/20 06:19:11;;;;;;;18.73;12.50;;;;;;;;;;5027878;28;20066;-59
2023/05/20 06:21:38;;;;;;;13.93;9.90;;;;;;;;;;5020270;28;20038;-59
2023/05/20 06:24:05;;;;;;;13.73;10.13;;;;;;;;;;5023367;28;20030;-59
2023/05/20 06:26:32;;;;;;;16.10;9.20;;;;;;;;;;5031758;28;20038;-59
2023/05/20 06:28:58;;;;;;;13.40;9.65;;;;;;;;;;5014736;28;20052;-59
2023/05/20 06:31:25;;;;;;;13.05;8.73;;;;;;;;;;5028927;28;20050;-59
2023/05/20 06:33:51;;;;;;;11.95;7.57;;;;;;;;;;5022936;28;20037;-59
2023/05/20 06:36:18;;;;;;;13.63;8.48;;;;;;;;;;5036707;28;20048;-58
2023/05/20 06:38:44;;;;;;;11.85;9.20;;;;;;;;;;5001872;28;20037;-59
2023/05/20 06:41:12;;;;;;;13.40;8.45;;;;;;;;;;5017841;28;20037;-59
2023/05/20 06:43:39;;;;;;;13.50;9.93;;;;;;;;;;5023633;28;20043;-59
2023/05/20 06:46:24;;;;;;;11.52;8.95;;;;;;;;;;5038571;28;20425;-59
2023/05/20 06:48:54;;;;;;;11.65;9.10;;;;;;;;;;5013553;28;20021;-59
2023/05/20 06:51:21;;;;;;;13.65;8.70;;;;;;;;;;5032382;28;20044;-59
2023/05/20 06:53:49;;;;;;;13.52;9.50;;;;;;;;;;5031533;28;20045;-59
2023/05/20 06:56:15;;;;;;;13.20;9.27;;;;;;;;;;5015686;28;20518;-59
2023/05/20 06:58:42;;;;;;;16.48;10.55;;;;;;;;;;5040724;28;20479;-58
2023/05/20 07:01:09;;;;;;;16.88;11.45;;;;;;;;;;5023989;28;20033;-59
2023/05/20 07:03:36;;;;;;;14.32;10.35;;;;;;;;;;5037354;28;20041;-58
2023/05/20 07:06:02;;;;;;;14.10;9.75;;;;;;;;;;5017966;28;20487;-59
2023/05/20 07:08:28;;;;;;;14.52;9.50;;;;;;;;;;5039740;28;20053;-60
2023/05/20 07:10:55;;;;;;;13.60;9.20;;;;;;;;;;5024696;28;20025;-59
2023/05/20 07:13:22;;;;;;;11.98;8.77;;;;;;;;;;5040131;28;20403;-58
2023/05/20 07:15:50;;;;;;;14.38;8.23;;;;;;;;;;5039733;28;20029;-59
2023/05/20 07:18:17;;;;;;;14.93;8.32;;;;;;;;;;5036883;28;20064;-58
2023/05/20 07:20:47;;;;;;;13.38;8.43;;;;;;;;;;5018735;28;20052;-59
2023/05/20 07:23:26;;;;;;;12.90;9.43;;;;;;;;;;5038743;28;20526;-59
2023/05/20 07:25:54;;;;;;;11.27;8.27;;;;;;;;;;5047705;28;20040;-58
2023/05/20 07:28:21;;;;;;;13.52;8.52;;;;;;;;;;5026504;28;20391;-59
2023/05/20 07:30:49;;;;;;;12.52;9.50;;;;;;;;;;5029645;28;20029;-59
2023/05/20 07:33:22;;;;;;;13.07;9.95;;;;;;;;;;5024965;28;20053;-59
2023/05/20 07:35:48;;;;;;;10.52;8.85;;;;;;;;;;5036996;28;20478;-59
2023/05/20 07:38:15;;;;;;;13.85;9.18;;;;;;;;;;5040669;28;20049;-60
2023/05/20 07:40:42;;;;;;;14.38;9.25;;;;;;;;;;5025657;28;20033;-59
2023/05/20 07:43:09;;;;;;;12.38;8.82;;;;;;;;;;5025156;28;20375;-59
2023/05/20 07:45:36;;;;;;;12.48;8.45;;;;;;;;;;5032978;28;20040;-59
2023/05/20 07:48:04;;;;;;;11.73;8.55;;;;;;;;;;5027119;28;20029;-59
2023/05/20 07:50:30;;;;;;;12.80;8.73;;;;;;;;;;5012028;28;20048;-60
2023/05/20 07:52:57;;;;;;;13.40;9.32;;;;;;;;;;5021520;28;20045;-59
2023/05/20 07:55:26;;;;;;;13.40;9.57;;;;;;;;;;5024222;28;20049;-59
2023/05/20 07:57:52;;;;;;;11.25;8.63;;;;;;;;;;5001609;28;20056;-60
2023/05/20 08:00:19;;;;;;;14.32;6.65;;;;;;;;;;5037062;28;20033;-60
2023/05/20 08:02:46;;;;;;;14.18;8.70;;;;;;;;;;5032632;28;20029;-60
2023/05/20 08:05:16;;;;;;;17.05;7.63;;;;;;;;;;5007537;28;20041;-60
2023/05/20 08:07:43;;;;;;;27.15;8.45;;;;;;;;;;5009403;28;20033;-60
2023/05/20 08:10:12;;;;;;;12.13;8.32;;;;;;;;;;5028195;28;20045;-60
2023/05/20 08:12:38;;;;;;;12.15;8.73;;;;;;;;;;5028845;28;20103;-59
2023/05/20 08:15:05;;;;;;;14.60;9.43;;;;;;;;;;5011568;28;20030;-60
2023/05/20 08:17:33;;;;;;;11.35;8.52;;;;;;;;;;5031141;28;20036;-60
2023/05/20 08:19:59;;;;;;;12.98;8.60;;;;;;;;;;5044365;28;20044;-59
2023/05/20 08:22:25;;;;;;;11.93;8.70;;;;;;;;;;5025167;28;20033;-61
2023/05/20 08:24:52;;;;;;;10.88;8.48;;;;;;;;;;5033992;28;20033;-61
2023/05/20 08:27:18;;;;;;;12.35;9.02;;;;;;;;;;5003481;28;20049;-60
2023/05/20 08:29:44;;;;;;;13.10;8.93;;;;;;;;;;5031836;28;20029;-60
2023/05/20 08:32:10;;;;;;;12.20;8.75;;;;;;;;;;5019629;28;20033;-60
2023/05/20 08:34:37;;;;;;;11.88;8.20;;;;;;;;;;5032922;28;20068;-60
2023/05/20 08:37:03;;;;;;;11.55;7.78;;;;;;;;;;5008842;28;20041;-60
2023/05/20 08:39:29;;;;;;;13.15;9.18;;;;;;;;;;5035719;28;20331;-59
2023/05/20 08:41:57;;;;;;;17.88;8.80;;;;;;;;;;5019080;28;20048;-61
2023/05/20 08:44:26;;;;;;;12.30;8.55;;;;;;;;;;5042224;28;20044;-60
2023/05/20 08:46:54;;;;;;;13.40;8.43;;;;;;;;;;5020392;28;20040;-60
2023/05/20 08:49:20;;;;;;;11.38;7.32;;;;;;;;;;5038560;28;20029;-61
2023/05/20 08:51:47;;;;;;;11.40;8.05;;;;;;;;;;5042379;28;20049;-61
2023/05/20 08:54:15;;;;;;;10.68;7.85;;;;;;;;;;5034372;28;20041;-60
2023/05/20 08:56:43;;;;;;;10.25;8.00;;;;;;;;;;5038303;28;20036;-60
2023/05/20 08:59:09;;;;;;;10.23;7.68;;;;;;;;;;5025912;28;20045;-60
2023/05/20 09:01:42;;;;;;;10.35;7.88;;;;;;;;;;5018583;28;20037;-60
2023/05/20 09:04:08;;;;;;;10.90;7.63;;;;;;;;;;5028286;28;20052;-60
2023/05/20 09:06:45;;;;;;;9.50;8.00;;;;;;;;;;5032223;28;20034;-60
2023/05/20 09:09:12;;;;;;;11.50;8.20;;;;;;;;;;5035359;28;20033;-59
2023/05/20 09:11:40;;;;;;;9.25;7.72;;;;;;;;;;5039824;28;20208;-60
2023/05/20 09:14:07;;;;;;;11.55;8.57;;;;;;;;;;5031460;28;20045;-60
2023/05/20 09:16:34;;;;;;;10.15;7.85;;;;;;;;;;5005317;28;20044;-60
2023/05/20 09:19:00;;;;;;;11.13;7.90;;;;;;;;;;5036279;28;20040;-59
2023/05/20 09:21:29;;;;;;;9.55;7.88;;;;;;;;;;5005827;28;20509;-60
2023/05/20 09:23:57;;;;;;;;;;;;;;;;;;5036423;28;20032;-60
2023/05/20 09:26:28;;;;;;;10.13;8.05;;;;;;;;;;5030004;28;19988;-60
2023/05/20 09:28:55;;;;;;;9.55;7.70;;;;;;;;;;5038995;28;20048;-60
2023/05/20 09:31:34;;;;;;;8.68;7.75;;;;;;;;;;5032722;28;20053;-60
2023/05/20 09:34:01;;;;;;;10.90;8.53;;;;;;;;;;5035265;28;20048;-60
2023/05/20 09:36:29;;;;;;;14.90;8.70;;;;;;;;;;5038365;28;20057;-60
2023/05/20 09:39:02;;;;;;;9.65;7.75;;;;;;;;;;5039120;28;20499;-60
2023/05/20 09:41:34;;;;;;;11.27;8.25;;;;;;;;;;5038588;28;20052;-60
2023/05/20 09:44:01;;;;;;;11.18;8.30;;;;;;;;;;5032802;28;20053;-60
2023/05/20 09:46:27;;;;;;;11.45;8.70;;;;;;;;;;5040674;28;20036;-60
2023/05/20 09:48:53;;;;;;;10.45;7.93;;;;;;;;;;5039684;28;20036;-60
2023/05/20 09:51:22;;;;;;;10.18;8.02;;;;;;;;;;5028388;28;20053;-60
2023/05/20 09:53:50;;;;;;;10.83;8.23;;;;;;;;;;5017805;28;20044;-59
2023/05/20 09:56:20;;;;;;;12.23;8.15;;;;;;;;;;5024793;28;20037;-59
2023/05/20 09:58:47;;;;;;;10.02;7.80;;;;;;;;;;5034751;28;20499;-59
2023/05/20 10:01:14;;;;;;;10.27;8.13;;;;;;;;;;5038699;28;20501;-59
2023/05/20 10:03:40;;;;;;;9.20;7.70;;;;;;;;;;5035275;28;20051;-59
2023/05/20 10:06:09;;;;;;;12.88;9.60;;;;;;;;;;5034414;28;20045;-59
2023/05/20 10:08:41;;;;;;;10.82;7.78;;;;;;;;;;5036915;28;20032;-59
2023/05/20 10:11:11;;;;;;;10.57;8.45;;;;;;;;;;5027408;28;20034;-60
2023/05/20 10:14:19;;;;;;;10.13;7.95;;;;;;;;;;5039890;28;20041;-60
2023/05/20 10:17:30;;;;;;;8.88;7.50;;;;;;;;;;5003563;28;20049;-60
2023/05/20 10:19:58;;;;;;;8.70;7.50;;;;;;;;;;5001199;28;20057;-60
2023/05/20 10:22:29;;;;;;;10.73;7.90;;;;;;;;;;5035022;28;20021;-59
2023/05/20 10:24:59;;;;;;;8.05;7.22;;;;;;;;;;5022084;28;20037;-59
2023/05/20 10:27:26;;;;;;;11.40;7.45;;;;;;;;;;5022948;28;20040;-60
2023/05/20 10:29:55;;;;;;;8.75;7.43;;;;;;;;;;5016793;28;20151;-59
2023/05/20 10:32:25;;;;;;;10.38;8.00;;;;;;;;;;5040019;28;20056;-60
2023/05/20 10:34:51;;;;;;;10.18;7.10;;;;;;;;;;5033775;28;20041;-59
2023/05/20 10:37:26;;;;;;;9.63;7.80;;;;;;;;;;5019112;28;20033;-59
2023/05/20 10:40:04;;;;;;;9.23;7.40;;;;;;;;;;5034348;28;20044;-60
2023/05/20 10:42:30;;;;;;;9.15;7.28;;;;;;;;;;5040492;28;20057;-59
2023/05/20 10:44:56;;;;;;;8.40;6.88;;;;;;;;;;5039475;28;20043;-60
2023/05/20 10:47:23;;;;;;;7.18;6.43;;;;;;;;;;5028136;28;20119;-60
2023/05/20 10:49:49;;;;;;;10.38;7.40;;;;;;;;;;5028895;28;20028;-59
2023/05/20 10:52:16;;;;;;;9.75;7.03;;;;;;;;;;5044018;28;20075;-60
2023/05/20 10:54:54;;;;;;;9.15;6.63;;;;;;;;;;5035792;28;20036;-60
2023/05/20 10:57:21;;;;;;;8.07;6.47;;;;;;;;;;5038724;28;20048;-60
2023/05/20 10:59:48;;;;;;;10.15;7.75;;;;;;;;;;5039842;28;20037;-60
2023/05/20 11:02:15;;;;;;;10.27;6.93;;;;;;;;;;5032571;28;20513;-60
2023/05/20 11:04:43;;;;;;;8.18;6.85;;;;;;;;;;5033456;28;20052;-60
2023/05/20 11:07:09;;;;;;;8.20;6.72;;;;;;;;;;5013059;28;20045;-60
2023/05/20 11:09:35;;;;;;;8.65;6.95;;;;;;;;;;5043138;28;20038;-61
2023/05/20 11:12:02;;;;;;;9.70;7.15;;;;;;;;;;5039158;28;20044;-60
2023/05/20 11:14:28;;;;;;;7.97;6.65;;;;;;;;;;5040818;28;20045;-60
2023/05/20 11:16:57;;;;;;;7.10;6.40;;;;;;;;;;5041888;28;20037;-60
2023/05/20 11:19:23;;;;;;;8.52;7.22;;;;;;;;;;5039076;28;20048;-61
2023/05/20 11:21:50;;;;;;;8.02;7.10;;;;;;;;;;5022837;28;20389;-61
2023/05/20 11:24:27;;;;;;;8.73;6.95;;;;;;;;;;5041967;28;20037;-61
2023/05/20 11:26:54;;;;;;;7.68;6.82;;;;;;;;;;5035563;28;20034;-60
2023/05/20 11:29:21;;;;;;;7.85;6.35;;;;;;;;;;5027400;28;20112;-61
2023/05/20 11:31:51;;;;;;;8.68;6.75;;;;;;;;;;5024221;28;20057;-60
2023/05/20 11:34:21;;;;;;;9.18;6.85;;;;;;;;;;5024077;28;20056;-60
2023/05/20 11:36:51;;;;;;;14.23;6.78;;;;;;;;;;5018665;28;20499;-61
2023/05/20 11:39:17;;;;;;;7.45;6.32;;;;;;;;;;5038249;28;20525;-61
2023/05/20 11:41:44;;;;;;;7.50;6.53;;;;;;;;;;5042452;28;20036;-61
2023/05/20 11:44:14;;;;;;;8.32;6.60;;;;;;;;;;5022478;28;20041;-61
2023/05/20 11:46:46;;;;;;;8.43;6.97;;;;;;;;;;5037767;28;20048;-61
2023/05/20 11:49:13;;;;;;;7.93;6.63;;;;;;;;;;5024949;28;20033;-61
2023/05/20 11:51:39;;;;;;;7.93;6.90;;;;;;;;;;5022087;28;20050;-61
2023/05/20 11:54:07;;;;;;;9.43;6.32;;;;;;;;;;5022944;28;20041;-60
2023/05/20 11:56:37;;;;;;;9.40;6.90;;;;;;;;;;5013396;28;20034;-60
2023/05/20 11:59:04;;;;;;;10.65;7.47;;;;;;;;;;5037492;28;20056;-60
2023/05/20 12:01:32;;;;;;;12.73;7.85;;;;;;;;;;5033194;28;20032;-60
2023/05/20 12:03:59;;;;;;;10.75;8.38;;;;;;;;;;5034646;28;20037;-61
2023/05/20 12:06:25;;;;;;;8.60;6.57;;;;;;;;;;5024266;28;20041;-60
2023/05/20 12:08:51;;;;;;;9.00;6.75;;;;;;;;;;5040511;28;20053;-61
2023/05/20 12:11:20;;;;;;;8.88;6.32;;;;;;;;;;5034814;28;20048;-61
2023/05/20 12:13:47;;;;;;;10.88;6.25;;;;;;;;;;5036230;28;20045;-61
2023/05/20 12:16:13;;;;;;;8.40;7.00;;;;;;;;;;5020726;28;20044;-62
2023/05/20 12:18:39;;;;;;;11.25;6.70;;;;;;;;;;5025764;28;20036;-62
2023/05/20 12:21:05;;;;;;;10.32;6.55;;;;;;;;;;5031718;28;20044;-61
2023/05/20 12:23:32;;;;;;;8.15;6.50;;;;;;;;;;4988301;28;1125906;-61
2023/05/20 12:25:59;;;;;;;7.15;6.40;;;;;;;;;;5029962;28;20060;-61
2023/05/20 12:28:26;;;;;;;11.57;6.60;;;;;;;;;;5029191;28;20388;-61
2023/05/20 12:30:52;;;;;;;7.82;6.45;;;;;;;;;;5036717;28;20044;-61
2023/05/20 12:33:19;;;;;;;7.47;6.50;;;;;;;;;;5033937;28;20483;-61
2023/05/20 12:35:45;;;;;;;8.35;6.40;;;;;;;;;;5037046;28;20037;-60
2023/05/20 12:38:12;;;;;;;7.88;6.05;;;;;;;;;;5042326;28;20040;-61
2023/05/20 12:40:38;;;;;;;8.57;6.03;;;;;;;;;;5031682;28;20045;-61
2023/05/20 12:43:04;;;;;;;7.30;6.05;;;;;;;;;;5039336;28;20041;-60
2023/05/20 12:45:31;;;;;;;7.75;5.68;;;;;;;;;;5033845;28;20028;-61
2023/05/20 12:47:57;;;;;;;7.03;5.63;;;;;;;;;;5007037;28;20032;-61
2023/05/20 12:50:24;;;;;;;7.25;5.90;;;;;;;;;;5027944;28;20031;-60
2023/05/20 12:52:50;;;;;;;11.15;6.85;;;;;;;;;;5024267;28;20037;-60
2023/05/20 12:55:16;;;;;;;11.27;6.60;;;;;;;;;;5029407;28;20064;-60
2023/05/20 12:57:43;;;;;;;6.32;5.53;;;;;;;;;;5038808;28;20030;-61
2023/05/20 13:00:11;;;;;;;9.10;5.07;;;;;;;;;;5016206;28;20049;-61
2023/05/20 13:02:38;;;;;;;7.78;4.97;;;;;;;;;;5039774;28;20053;-60
2023/05/20 13:05:05;;;;;;;7.90;4.68;;;;;;;;;;5037414;28;20040;-61
2023/05/20 13:07:31;;;;;;;5.45;4.45;;;;;;;;;;5017430;28;20045;-61
2023/05/20 13:09:58;;;;;;;5.28;4.70;;;;;;;;;;5040209;28;20029;-61
2023/05/20 13:12:25;;;;;;;6.18;4.10;;;;;;;;;;5023395;28;20481;-61
2023/05/20 13:14:51;;;;;;;5.25;4.20;;;;;;;;;;5039419;28;20040;-62
2023/05/20 13:17:17;;;;;;;9.45;5.50;;;;;;;;;;5039733;28;20053;-61
2023/05/20 13:19:46;;;;;;;4.07;3.67;;;;;;;;;;5032444;28;20387;-61
2023/05/20 13:22:13;;;;;;;4.75;3.90;;;;;;;;;;5039173;28;20049;-61
2023/05/20 13:24:39;;;;;;;5.10;3.70;;;;;;;;;;5037199;28;20041;-61
2023/05/20 13:27:05;;;;;;;8.25;3.85;;;;;;;;;;5033365;28;20040;-61
2023/05/20 13:29:31;;;;;;;4.10;3.70;;;;;;;;;;5023342;28;20025;-62
2023/05/20 13:31:58;;;;;;;6.35;3.75;;;;;;;;;;5038449;28;20049;-61
2023/05/20 13:34:24;;;;;;;4.72;4.07;;;;;;;;;;5033837;28;20045;-61
2023/05/20 13:36:50;;;;;;;5.97;4.18;;;;;;;;;;5035005;28;20037;-61
2023/05/20 13:39:16;;;;;;;4.28;3.85;;;;;;;;;;5017152;28;20056;-61
2023/05/20 13:41:43;;;;;;;6.72;3.80;;;;;;;;;;5029184;28;20048;-62
2023/05/20 13:44:09;;;;;;;5.50;4.70;;;;;;;;;;5022642;28;20507;-62
2023/05/20 13:46:36;;;;;;;5.28;4.25;;;;;;;;;;5031852;28;20043;-62
2023/05/20 13:49:02;;;;;;;5.00;4.18;;;;;;;;;;5021884;28;20032;-61
2023/05/20 13:51:30;;;;;;;7.03;4.35;;;;;;;;;;5034089;28;20040;-61
2023/05/20 13:53:56;;;;;;;5.80;4.00;;;;;;;;;;5037061;28;20033;-61
2023/05/20 13:56:22;;;;;;;7.25;4.38;;;;;;;;;;5038799;28;20045;-62
2023/05/20 13:58:49;;;;;;;6.55;4.35;;;;;;;;;;5022333;28;20029;-61
2023/05/20 14:01:15;;;;;;;6.18;4.35;;;;;;;;;;5002048;28;20041;-61
2023/05/20 14:03:41;;;;;;;6.53;5.05;;;;;;;;;;5030761;28;20033;-62
2023/05/20 14:06:08;;;;;;;6.50;5.18;;;;;;;;;;5028772;28;20048;-60
2023/05/20 14:08:34;;;;;;;6.18;4.55;;;;;;;;;;5017845;28;20038;-61
2023/05/20 14:11:00;;;;;;;8.15;5.53;;;;;;;;;;5034171;28;20038;-62
2023/05/20 14:13:27;;;;;;;6.82;4.53;;;;;;;;;;5033235;28;20049;-61
2023/05/20 14:15:53;;;;;;;6.22;4.28;;;;;;;;;;5030327;28;20029;-62
2023/05/20 14:18:20;;;;;;;6.18;4.13;;;;;;;;;;5035033;28;20039;-62
2023/05/20 14:20:46;;;;;;;5.53;4.47;;;;;;;;;;5038777;28;20044;-61
2023/05/20 14:23:13;;;;;;;6.38;5.10;;;;;;;;;;5034861;28;20049;-62
2023/05/20 14:25:39;;;;;;;8.43;5.50;;;;;;;;;;5040438;28;20025;-62
2023/05/20 14:28:05;;;;;;;6.68;4.55;;;;;;;;;;5035390;28;20049;-61
2023/05/20 14:30:31;;;;;;;5.47;4.75;;;;;;;;;;5030552;28;20022;-62
2023/05/20 14:32:58;;;;;;;5.65;4.65;;;;;;;;;;5025693;28;20419;-61
2023/05/20 14:35:24;;;;;;;4.97;4.45;;;;;;;;;;5020571;28;20040;-60
2023/05/20 14:37:51;;;;;;;6.57;4.60;;;;;;;;;;5034316;28;20483;-61